sensor_id;sensor_type;location;lat;lon;timestamp;P1;durP1;ratioP1;P2;durP2;ratioP2
14883;SDS011;7534;50.762;7.000;2023-09-08T00:02:24;7.83;;;6.90;;
14883;SDS011;7534;50.762;7.000;2023-09-08T00:04:53;8.27;;;7.43;;
14883;SDS011;7534;50.762;7.000;2023-09-08T00:07:20;8.02;;;7.22;;
14883;SDS011;7534;50.762;7.000;2023-09-08T00:09:45;7.28;;;6.68;;
14883;SDS011;7534;50.762;7.000;2023-09-08T00:12:11;8.38;;;7.57;;
14883;SDS011;7534;50.762;7.000;2023-09-08T00:14:38;8.48;;;7.40;;
14883;SDS011;7534;50.762;7.000;2023-09-08T00:17:04;9.25;;;7.40;;
14883;SDS011;7534;50.762;7.000;2023-09-08T00:19:30;7.93;;;7.22;;
14883;SDS011;7534;50.762;7.000;2023-09-08T00:21:56;8.30;;;7.33;;
14883;SDS011;7534;50.762;7.000;2023-09-08T00:24:22;8.83;;;7.07;;
14883;SDS011;7534;50.762;7.000;2023-09-08T00:26:47;8.00;;;7.20;;
14883;SDS011;7534;50.762;7.000;2023-09-08T00:29:13;8.17;;;7.37;;
14883;SDS011;7534;50.762;7.000;2023-09-08T00:31:39;8.00;;;7.23;;
14883;SDS011;7534;50.762;7.000;2023-09-08T00:34:05;7.90;;;7.10;;
14883;SDS011;7534;50.762;7.000;2023-09-08T00:36:31;7.50;;;6.80;;
14883;SDS011;7534;50.762;7.000;2023-09-08T00:38:57;7.93;;;7.13;;
14883;SDS011;7534;50.762;7.000;2023-09-08T00:41:23;8.33;;;7.23;;
14883;SDS011;7534;50.762;7.000;2023-09-08T00:43:49;8.20;;;7.40;;
14883;SDS011;7534;50.762;7.000;2023-09-08T00:46:15;8.37;;;7.47;;
14883;SDS011;7534;50.762;7.000;2023-09-08T00:48:42;8.60;;;7.80;;
14883;SDS011;7534;50.762;7.000;2023-09-08T00:51:08;9.20;;;7.40;;
14883;SDS011;7534;50.762;7.000;2023-09-08T00:53:35;7.73;;;6.93;;
14883;SDS011;7534;50.762;7.000;2023-09-08T00:56:02;8.27;;;7.47;;
14883;SDS011;7534;50.762;7.000;2023-09-08T00:58:29;8.43;;;7.57;;
14883;SDS011;7534;50.762;7.000;2023-09-08T01:00:55;8.40;;;7.70;;
14883;SDS011;7534;50.762;7.000;2023-09-08T01:03:23;8.73;;;7.33;;
14883;SDS011;7534;50.762;7.000;2023-09-08T01:05:50;9.60;;;8.37;;
14883;SDS011;7534;50.762;7.000;2023-09-08T01:08:16;8.70;;;7.50;;
14883;SDS011;7534;50.762;7.000;2023-09-08T01:10:43;8.70;;;7.90;;
14883;SDS011;7534;50.762;7.000;2023-09-08T01:13:11;8.80;;;8.00;;
14883;SDS011;7534;50.762;7.000;2023-09-08T01:15:36;9.70;;;8.23;;
14883;SDS011;7534;50.762;7.000;2023-09-08T01:18:02;8.90;;;8.10;;
14883;SDS011;7534;50.762;7.000;2023-09-08T01:21:17;8.93;;;8.03;;
14883;SDS011;7534;50.762;7.000;2023-09-08T01:26:46;8.87;;;7.80;;
14883;SDS011;7534;50.762;7.000;2023-09-08T01:29:13;8.53;;;7.73;;
14883;SDS011;7534;50.762;7.000;2023-09-08T01:31:41;8.07;;;7.27;;
14883;SDS011;7534;50.762;7.000;2023-09-08T01:34:07;8.17;;;7.47;;
14883;SDS011;7534;50.762;7.000;2023-09-08T01:36:34;8.53;;;7.73;;
14883;SDS011;7534;50.762;7.000;2023-09-08T01:39:03;8.10;;;7.30;;
14883;SDS011;7534;50.762;7.000;2023-09-08T01:44:17;8.17;;;7.47;;
14883;SDS011;7534;50.762;7.000;2023-09-08T01:46:43;8.17;;;7.40;;
14883;SDS011;7534;50.762;7.000;2023-09-08T01:49:09;8.17;;;7.40;;
14883;SDS011;7534;50.762;7.000;2023-09-08T01:51:35;7.93;;;7.23;;
14883;SDS011;7534;50.762;7.000;2023-09-08T01:54:00;8.20;;;7.40;;
14883;SDS011;7534;50.762;7.000;2023-09-08T01:56:26;8.67;;;7.77;;
14883;SDS011;7534;50.762;7.000;2023-09-08T01:58:52;9.10;;;7.80;;
14883;SDS011;7534;50.762;7.000;2023-09-08T02:01:17;8.53;;;7.43;;
14883;SDS011;7534;50.762;7.000;2023-09-08T02:03:43;9.27;;;8.27;;
14883;SDS011;7534;50.762;7.000;2023-09-08T02:06:09;9.93;;;7.80;;
14883;SDS011;7534;50.762;7.000;2023-09-08T02:08:34;10.30;;;8.27;;
14883;SDS011;7534;50.762;7.000;2023-09-08T02:11:00;8.63;;;7.20;;
14883;SDS011;7534;50.762;7.000;2023-09-08T02:13:26;8.67;;;7.77;;
14883;SDS011;7534;50.762;7.000;2023-09-08T02:15:51;8.70;;;7.90;;
14883;SDS011;7534;50.762;7.000;2023-09-08T02:18:17;8.50;;;7.70;;
14883;SDS011;7534;50.762;7.000;2023-09-08T02:20:43;9.17;;;8.27;;
14883;SDS011;7534;50.762;7.000;2023-09-08T02:23:08;8.67;;;7.57;;
14883;SDS011;7534;50.762;7.000;2023-09-08T02:25:34;8.63;;;7.83;;
14883;SDS011;7534;50.762;7.000;2023-09-08T02:28:00;8.60;;;7.70;;
14883;SDS011;7534;50.762;7.000;2023-09-08T02:30:26;8.80;;;8.00;;
14883;SDS011;7534;50.762;7.000;2023-09-08T02:32:51;8.27;;;7.50;;
14883;SDS011;7534;50.762;7.000;2023-09-08T02:35:17;8.70;;;8.00;;
14883;SDS011;7534;50.762;7.000;2023-09-08T02:37:43;10.47;;;7.33;;
14883;SDS011;7534;50.762;7.000;2023-09-08T02:40:08;7.67;;;6.90;;
14883;SDS011;7534;50.762;7.000;2023-09-08T02:42:34;8.93;;;6.77;;
14883;SDS011;7534;50.762;7.000;2023-09-08T02:45:00;8.07;;;6.80;;
14883;SDS011;7534;50.762;7.000;2023-09-08T02:47:26;7.70;;;6.93;;
14883;SDS011;7534;50.762;7.000;2023-09-08T02:49:51;7.80;;;7.00;;
14883;SDS011;7534;50.762;7.000;2023-09-08T02:52:17;10.20;;;6.77;;
14883;SDS011;7534;50.762;7.000;2023-09-08T02:54:44;7.50;;;6.73;;
14883;SDS011;7534;50.762;7.000;2023-09-08T02:57:10;8.47;;;6.77;;
14883;SDS011;7534;50.762;7.000;2023-09-08T02:59:36;9.10;;;7.00;;
14883;SDS011;7534;50.762;7.000;2023-09-08T03:02:01;9.03;;;6.97;;
14883;SDS011;7534;50.762;7.000;2023-09-08T03:04:27;11.80;;;8.50;;
14883;SDS011;7534;50.762;7.000;2023-09-08T03:06:53;9.53;;;7.33;;
14883;SDS011;7534;50.762;7.000;2023-09-08T03:09:18;8.80;;;7.70;;
14883;SDS011;7534;50.762;7.000;2023-09-08T03:11:44;8.10;;;7.10;;
14883;SDS011;7534;50.762;7.000;2023-09-08T03:14:10;8.73;;;7.17;;
14883;SDS011;7534;50.762;7.000;2023-09-08T03:16:35;8.77;;;7.03;;
14883;SDS011;7534;50.762;7.000;2023-09-08T03:19:01;7.73;;;6.93;;
14883;SDS011;7534;50.762;7.000;2023-09-08T03:21:26;9.50;;;7.73;;
14883;SDS011;7534;50.762;7.000;2023-09-08T03:23:52;8.20;;;7.07;;
14883;SDS011;7534;50.762;7.000;2023-09-08T03:26:18;8.07;;;7.27;;
14883;SDS011;7534;50.762;7.000;2023-09-08T03:28:43;16.73;;;15.18;;
14883;SDS011;7534;50.762;7.000;2023-09-08T03:31:09;29.90;;;26.53;;
14883;SDS011;7534;50.762;7.000;2023-09-08T03:33:35;46.35;;;35.38;;
14883;SDS011;7534;50.762;7.000;2023-09-08T03:36:01;116.97;;;57.45;;
14883;SDS011;7534;50.762;7.000;2023-09-08T03:38:27;186.25;;;75.75;;
14883;SDS011;7534;50.762;7.000;2023-09-08T03:40:53;211.30;;;81.33;;
14883;SDS011;7534;50.762;7.000;2023-09-08T03:43:18;270.92;;;97.10;;
14883;SDS011;7534;50.762;7.000;2023-09-08T03:45:44;474.58;;;146.88;;
14883;SDS011;7534;50.762;7.000;2023-09-08T03:48:10;374.57;;;123.67;;
14883;SDS011;7534;50.762;7.000;2023-09-08T03:50:35;321.58;;;109.13;;
14883;SDS011;7534;50.762;7.000;2023-09-08T03:53:01;453.17;;;141.48;;
14883;SDS011;7534;50.762;7.000;2023-09-08T03:55:27;662.30;;;184.77;;
14883;SDS011;7534;50.762;7.000;2023-09-08T04:00:22;843.88;;;222.80;;
14883;SDS011;7534;50.762;7.000;2023-09-08T04:02:51;837.70;;;222.50;;
14883;SDS011;7534;50.762;7.000;2023-09-08T04:05:17;10.15;;;9.15;;
14883;SDS011;7534;50.762;7.000;2023-09-08T04:07:46;8.77;;;7.97;;
14883;SDS011;7534;50.762;7.000;2023-09-08T04:10:12;8.53;;;7.73;;
14883;SDS011;7534;50.762;7.000;2023-09-08T04:12:38;8.47;;;7.43;;
14883;SDS011;7534;50.762;7.000;2023-09-08T04:15:05;8.43;;;7.60;;
14883;SDS011;7534;50.762;7.000;2023-09-08T04:17:31;8.30;;;7.50;;
14883;SDS011;7534;50.762;7.000;2023-09-08T04:19:58;8.10;;;7.30;;
14883;SDS011;7534;50.762;7.000;2023-09-08T04:22:24;8.77;;;7.87;;
14883;SDS011;7534;50.762;7.000;2023-09-08T04:24:49;8.23;;;7.40;;
14883;SDS011;7534;50.762;7.000;2023-09-08T04:27:15;8.47;;;7.63;;
14883;SDS011;7534;50.762;7.000;2023-09-08T04:29:41;8.60;;;7.70;;
14883;SDS011;7534;50.762;7.000;2023-09-08T04:32:06;8.63;;;7.73;;
14883;SDS011;7534;50.762;7.000;2023-09-08T04:34:37;7.67;;;6.97;;
14883;SDS011;7534;50.762;7.000;2023-09-08T04:37:05;8.90;;;7.57;;
14883;SDS011;7534;50.762;7.000;2023-09-08T04:39:31;15.30;;;13.87;;
14883;SDS011;7534;50.762;7.000;2023-09-08T04:41:58;45.17;;;35.58;;
14883;SDS011;7534;50.762;7.000;2023-09-08T04:44:23;152.70;;;68.88;;
14883;SDS011;7534;50.762;7.000;2023-09-08T04:46:50;301.35;;;107.47;;
14883;SDS011;7534;50.762;7.000;2023-09-08T04:49:16;157.32;;;69.47;;
14883;SDS011;7534;50.762;7.000;2023-09-08T04:51:43;302.70;;;106.63;;
14883;SDS011;7534;50.762;7.000;2023-09-08T04:54:09;368.83;;;123.93;;
14883;SDS011;7534;50.762;7.000;2023-09-08T04:56:34;279.88;;;101.05;;
14883;SDS011;7534;50.762;7.000;2023-09-08T04:59:00;358.80;;;121.37;;
14883;SDS011;7534;50.762;7.000;2023-09-08T05:01:26;441.65;;;140.07;;
14883;SDS011;7534;50.762;7.000;2023-09-08T05:03:52;630.00;;;182.17;;
14883;SDS011;7534;50.762;7.000;2023-09-08T05:06:20;536.58;;;162.30;;
14883;SDS011;7534;50.762;7.000;2023-09-08T05:08:45;402.17;;;129.68;;
14883;SDS011;7534;50.762;7.000;2023-09-08T05:11:11;402.40;;;131.50;;
14883;SDS011;7534;50.762;7.000;2023-09-08T05:13:37;607.53;;;178.37;;
14883;SDS011;7534;50.762;7.000;2023-09-08T05:16:04;359.03;;;121.47;;
14883;SDS011;7534;50.762;7.000;2023-09-08T05:18:36;420.30;;;136.40;;
14883;SDS011;7534;50.762;7.000;2023-09-08T05:21:07;172.88;;;73.45;;
14883;SDS011;7534;50.762;7.000;2023-09-08T05:23:33;596.42;;;173.80;;
14883;SDS011;7534;50.762;7.000;2023-09-08T05:25:59;710.97;;;202.07;;
14883;SDS011;7534;50.762;7.000;2023-09-08T05:28:26;660.97;;;189.15;;
14883;SDS011;7534;50.762;7.000;2023-09-08T05:30:52;793.38;;;218.18;;
14883;SDS011;7534;50.762;7.000;2023-09-08T05:33:18;612.50;;;178.45;;
14883;SDS011;7534;50.762;7.000;2023-09-08T05:35:44;1226.33;;;306.50;;
14883;SDS011;7534;50.762;7.000;2023-09-08T05:38:11;1064.05;;;275.77;;
14883;SDS011;7534;50.762;7.000;2023-09-08T05:40:36;1012.50;;;266.05;;
14883;SDS011;7534;50.762;7.000;2023-09-08T05:43:03;1576.75;;;367.05;;
14883;SDS011;7534;50.762;7.000;2023-09-08T05:45:31;1367.22;;;333.75;;
14883;SDS011;7534;50.762;7.000;2023-09-08T05:47:57;1137.45;;;292.60;;
14883;SDS011;7534;50.762;7.000;2023-09-08T05:50:23;1917.38;;;433.60;;
14883;SDS011;7534;50.762;7.000;2023-09-08T05:52:48;1588.97;;;372.90;;
14883;SDS011;7534;50.762;7.000;2023-09-08T05:55:16;829.05;;;231.43;;
14883;SDS011;7534;50.762;7.000;2023-09-08T05:57:42;1524.07;;;359.33;;
14883;SDS011;7534;50.762;7.000;2023-09-08T06:00:08;837.00;;;231.53;;
14883;SDS011;7534;50.762;7.000;2023-09-08T06:02:34;1092.63;;;278.17;;
14883;SDS011;7534;50.762;7.000;2023-09-08T06:04:59;1902.03;;;424.27;;
14883;SDS011;7534;50.762;7.000;2023-09-08T06:07:25;1910.27;;;433.70;;
14883;SDS011;7534;50.762;7.000;2023-09-08T06:09:51;1205.93;;;306.37;;
14883;SDS011;7534;50.762;7.000;2023-09-08T06:12:16;1693.47;;;389.98;;
14883;SDS011;7534;50.762;7.000;2023-09-08T06:14:42;1779.07;;;408.97;;
14883;SDS011;7534;50.762;7.000;2023-09-08T06:17:09;1064.77;;;277.33;;
14883;SDS011;7534;50.762;7.000;2023-09-08T06:19:35;1886.43;;;427.27;;
14883;SDS011;7534;50.762;7.000;2023-09-08T06:22:01;1596.73;;;372.23;;
14883;SDS011;7534;50.762;7.000;2023-09-08T06:24:26;1217.17;;;303.33;;
14883;SDS011;7534;50.762;7.000;2023-09-08T06:26:52;1398.03;;;340.13;;
14883;SDS011;7534;50.762;7.000;2023-09-08T06:29:18;1727.43;;;397.75;;
14883;SDS011;7534;50.762;7.000;2023-09-08T06:31:44;1081.30;;;272.63;;
14883;SDS011;7534;50.762;7.000;2023-09-08T06:34:10;1625.13;;;379.42;;
14883;SDS011;7534;50.762;7.000;2023-09-08T06:36:35;1556.33;;;366.77;;
14883;SDS011;7534;50.762;7.000;2023-09-08T06:39:02;707.78;;;196.75;;
14883;SDS011;7534;50.762;7.000;2023-09-08T06:41:29;1288.70;;;318.40;;
14883;SDS011;7534;50.762;7.000;2023-09-08T06:43:54;1545.23;;;372.90;;
14883;SDS011;7534;50.762;7.000;2023-09-08T06:46:22;1754.43;;;410.17;;
14883;SDS011;7534;50.762;7.000;2023-09-08T06:48:48;1230.00;;;308.67;;
14883;SDS011;7534;50.762;7.000;2023-09-08T06:51:14;1336.68;;;325.33;;
14883;SDS011;7534;50.762;7.000;2023-09-08T06:53:40;1123.10;;;287.17;;
14883;SDS011;7534;50.762;7.000;2023-09-08T06:56:08;1076.13;;;277.40;;
14883;SDS011;7534;50.762;7.000;2023-09-08T06:58:36;1879.10;;;432.55;;
14883;SDS011;7534;50.762;7.000;2023-09-08T07:01:02;1419.25;;;342.70;;
14883;SDS011;7534;50.762;7.000;2023-09-08T07:03:28;1459.93;;;353.38;;
14883;SDS011;7534;50.762;7.000;2023-09-08T07:05:53;850.65;;;226.82;;
14883;SDS011;7534;50.762;7.000;2023-09-08T07:08:19;1211.97;;;299.43;;
14883;SDS011;7534;50.762;7.000;2023-09-08T07:10:45;1200.60;;;301.87;;
14883;SDS011;7534;50.762;7.000;2023-09-08T07:13:17;978.35;;;261.52;;
14883;SDS011;7534;50.762;7.000;2023-09-08T07:15:42;1263.70;;;319.83;;
14883;SDS011;7534;50.762;7.000;2023-09-08T07:18:08;1310.63;;;327.17;;
14883;SDS011;7534;50.762;7.000;2023-09-08T07:20:34;1670.27;;;390.17;;
14883;SDS011;7534;50.762;7.000;2023-09-08T07:23:00;1477.50;;;358.40;;
14883;SDS011;7534;50.762;7.000;2023-09-08T07:25:25;1364.07;;;336.77;;
14883;SDS011;7534;50.762;7.000;2023-09-08T07:27:51;1038.18;;;273.40;;
14883;SDS011;7534;50.762;7.000;2023-09-08T07:30:18;1326.30;;;328.23;;
14883;SDS011;7534;50.762;7.000;2023-09-08T07:32:45;1799.53;;;420.33;;
14883;SDS011;7534;50.762;7.000;2023-09-08T07:35:11;180.80;;;66.27;;
14883;SDS011;7534;50.762;7.000;2023-09-08T07:37:42;9.98;;;7.10;;
14883;SDS011;7534;50.762;7.000;2023-09-08T07:40:10;7.45;;;5.90;;
14883;SDS011;7534;50.762;7.000;2023-09-08T07:42:37;8.82;;;5.97;;
14883;SDS011;7534;50.762;7.000;2023-09-08T07:45:03;6.68;;;6.00;;
14883;SDS011;7534;50.762;7.000;2023-09-08T07:47:29;6.90;;;6.20;;
14883;SDS011;7534;50.762;7.000;2023-09-08T07:50:16;6.35;;;5.43;;
14883;SDS011;7534;50.762;7.000;2023-09-08T07:52:58;7.25;;;5.25;;
14883;SDS011;7534;50.762;7.000;2023-09-08T07:55:26;7.72;;;5.50;;
14883;SDS011;7534;50.762;7.000;2023-09-08T07:57:54;6.25;;;5.68;;
14883;SDS011;7534;50.762;7.000;2023-09-08T08:00:20;5.50;;;5.00;;
14883;SDS011;7534;50.762;7.000;2023-09-08T08:02:50;6.18;;;5.70;;
14883;SDS011;7534;50.762;7.000;2023-09-08T08:05:19;5.70;;;5.13;;
14883;SDS011;7534;50.762;7.000;2023-09-08T08:07:45;5.45;;;4.95;;
14883;SDS011;7534;50.762;7.000;2023-09-08T08:10:11;5.47;;;5.00;;
14883;SDS011;7534;50.762;7.000;2023-09-08T08:12:38;5.20;;;4.80;;
14883;SDS011;7534;50.762;7.000;2023-09-08T08:15:05;5.40;;;4.85;;
14883;SDS011;7534;50.762;7.000;2023-09-08T08:17:32;5.05;;;4.55;;
14883;SDS011;7534;50.762;7.000;2023-09-08T08:19:58;5.30;;;4.82;;
14883;SDS011;7534;50.762;7.000;2023-09-08T08:22:25;5.40;;;4.90;;
14883;SDS011;7534;50.762;7.000;2023-09-08T08:24:51;5.85;;;5.35;;
14883;SDS011;7534;50.762;7.000;2023-09-08T08:27:16;5.43;;;5.03;;
14883;SDS011;7534;50.762;7.000;2023-09-08T08:29:42;5.53;;;5.03;;
14883;SDS011;7534;50.762;7.000;2023-09-08T08:32:08;5.10;;;4.55;;
14883;SDS011;7534;50.762;7.000;2023-09-08T08:34:34;5.55;;;5.05;;
14883;SDS011;7534;50.762;7.000;2023-09-08T08:37:00;7.45;;;5.07;;
14883;SDS011;7534;50.762;7.000;2023-09-08T08:39:26;6.13;;;5.40;;
14883;SDS011;7534;50.762;7.000;2023-09-08T08:41:53;5.97;;;4.95;;
14883;SDS011;7534;50.762;7.000;2023-09-08T08:44:19;7.72;;;5.28;;
14883;SDS011;7534;50.762;7.000;2023-09-08T08:46:46;6.25;;;5.10;;
14883;SDS011;7534;50.762;7.000;2023-09-08T08:49:14;6.15;;;4.90;;
14883;SDS011;7534;50.762;7.000;2023-09-08T08:51:44;5.05;;;4.65;;
14883;SDS011;7534;50.762;7.000;2023-09-08T08:54:13;4.75;;;4.45;;
14883;SDS011;7534;50.762;7.000;2023-09-08T08:56:41;5.65;;;4.97;;
14883;SDS011;7534;50.762;7.000;2023-09-08T08:59:08;7.22;;;4.75;;
14883;SDS011;7534;50.762;7.000;2023-09-08T09:01:36;4.50;;;4.20;;
14883;SDS011;7534;50.762;7.000;2023-09-08T09:04:04;5.05;;;4.55;;
14883;SDS011;7534;50.762;7.000;2023-09-08T09:06:31;5.20;;;4.70;;
14883;SDS011;7534;50.762;7.000;2023-09-08T09:08:57;4.80;;;4.40;;
14883;SDS011;7534;50.762;7.000;2023-09-08T09:11:24;5.50;;;4.63;;
14883;SDS011;7534;50.762;7.000;2023-09-08T09:13:50;5.00;;;4.50;;
14883;SDS011;7534;50.762;7.000;2023-09-08T09:16:16;5.30;;;4.90;;
14883;SDS011;7534;50.762;7.000;2023-09-08T09:18:53;5.95;;;5.45;;
14883;SDS011;7534;50.762;7.000;2023-09-08T09:21:20;5.18;;;4.68;;
14883;SDS011;7534;50.762;7.000;2023-09-08T09:23:47;8.32;;;4.90;;
14883;SDS011;7534;50.762;7.000;2023-09-08T09:29:18;4.97;;;4.50;;
14883;SDS011;7534;50.762;7.000;2023-09-08T09:31:53;5.07;;;4.57;;
14883;SDS011;7534;50.762;7.000;2023-09-08T09:34:28;6.00;;;5.03;;
14883;SDS011;7534;50.762;7.000;2023-09-08T09:36:55;6.68;;;4.68;;
14883;SDS011;7534;50.762;7.000;2023-09-08T09:39:22;6.15;;;4.75;;
14883;SDS011;7534;50.762;7.000;2023-09-08T09:41:57;5.68;;;4.55;;
14883;SDS011;7534;50.762;7.000;2023-09-08T09:44:23;5.07;;;4.68;;
14883;SDS011;7534;50.762;7.000;2023-09-08T09:46:52;5.15;;;4.70;;
14883;SDS011;7534;50.762;7.000;2023-09-08T09:49:18;5.22;;;4.82;;
14883;SDS011;7534;50.762;7.000;2023-09-08T09:51:46;5.25;;;4.85;;
14883;SDS011;7534;50.762;7.000;2023-09-08T09:54:14;5.38;;;4.88;;
14883;SDS011;7534;50.762;7.000;2023-09-08T09:56:40;4.97;;;4.55;;
14883;SDS011;7534;50.762;7.000;2023-09-08T09:59:12;6.00;;;4.90;;
14883;SDS011;7534;50.762;7.000;2023-09-08T10:01:39;4.85;;;4.45;;
14883;SDS011;7534;50.762;7.000;2023-09-08T10:04:07;5.45;;;4.50;;
14883;SDS011;7534;50.762;7.000;2023-09-08T10:06:35;5.40;;;4.90;;
14883;SDS011;7534;50.762;7.000;2023-09-08T10:09:05;5.18;;;4.65;;
14883;SDS011;7534;50.762;7.000;2023-09-08T10:11:39;5.45;;;4.90;;
14883;SDS011;7534;50.762;7.000;2023-09-08T10:14:14;5.57;;;5.07;;
14883;SDS011;7534;50.762;7.000;2023-09-08T10:16:44;5.13;;;4.68;;
14883;SDS011;7534;50.762;7.000;2023-09-08T10:19:14;5.07;;;4.68;;
14883;SDS011;7534;50.762;7.000;2023-09-08T10:21:42;6.22;;;5.28;;
14883;SDS011;7534;50.762;7.000;2023-09-08T10:24:14;5.43;;;4.93;;
14883;SDS011;7534;50.762;7.000;2023-09-08T10:26:51;5.50;;;5.10;;
14883;SDS011;7534;50.762;7.000;2023-09-08T10:29:31;6.25;;;5.18;;
14883;SDS011;7534;50.762;7.000;2023-09-08T10:31:59;6.05;;;5.18;;
14883;SDS011;7534;50.762;7.000;2023-09-08T10:34:27;5.80;;;5.30;;
14883;SDS011;7534;50.762;7.000;2023-09-08T10:36:54;5.60;;;5.10;;
14883;SDS011;7534;50.762;7.000;2023-09-08T10:39:27;5.78;;;5.28;;
14883;SDS011;7534;50.762;7.000;2023-09-08T10:48:00;8.43;;;5.28;;
14883;SDS011;7534;50.762;7.000;2023-09-08T10:50:19;7.03;;;5.18;;
14883;SDS011;7534;50.762;7.000;2023-09-08T10:53:08;5.97;;;5.35;;
14883;SDS011;7534;50.762;7.000;2023-09-08T10:55:44;5.95;;;5.15;;
14883;SDS011;7534;50.762;7.000;2023-09-08T10:58:20;5.72;;;5.15;;
14883;SDS011;7534;50.762;7.000;2023-09-08T11:01:04;5.75;;;5.15;;
14883;SDS011;7534;50.762;7.000;2023-09-08T11:06:05;5.70;;;5.10;;
14883;SDS011;7534;50.762;7.000;2023-09-08T11:08:41;5.68;;;5.28;;
14883;SDS011;7534;50.762;7.000;2023-09-08T11:11:12;5.53;;;5.00;;
14883;SDS011;7534;50.762;7.000;2023-09-08T11:13:39;7.35;;;4.88;;
14883;SDS011;7534;50.762;7.000;2023-09-08T11:16:06;5.72;;;5.10;;
14883;SDS011;7534;50.762;7.000;2023-09-08T11:18:33;5.68;;;5.18;;
14883;SDS011;7534;50.762;7.000;2023-09-08T11:21:00;7.72;;;5.35;;
14883;SDS011;7534;50.762;7.000;2023-09-08T11:23:27;5.25;;;4.78;;
14883;SDS011;7534;50.762;7.000;2023-09-08T11:25:53;8.40;;;5.18;;
14883;SDS011;7534;50.762;7.000;2023-09-08T11:28:23;5.22;;;4.82;;
14883;SDS011;7534;50.762;7.000;2023-09-08T11:30:52;5.75;;;5.25;;
14883;SDS011;7534;50.762;7.000;2023-09-08T11:33:21;6.07;;;5.47;;
14883;SDS011;7534;50.762;7.000;2023-09-08T11:35:51;5.63;;;5.18;;
14883;SDS011;7534;50.762;7.000;2023-09-08T11:38:22;5.47;;;4.97;;
14883;SDS011;7534;50.762;7.000;2023-09-08T11:40:51;6.80;;;4.90;;
14883;SDS011;7534;50.762;7.000;2023-09-08T11:43:22;6.03;;;5.43;;
14883;SDS011;7534;50.762;7.000;2023-09-08T11:45:48;5.88;;;4.80;;
14883;SDS011;7534;50.762;7.000;2023-09-08T11:48:14;5.90;;;5.40;;
14883;SDS011;7534;50.762;7.000;2023-09-08T11:50:41;5.70;;;5.20;;
14883;SDS011;7534;50.762;7.000;2023-09-08T11:53:07;5.88;;;5.20;;
14883;SDS011;7534;50.762;7.000;2023-09-08T11:55:34;5.50;;;5.00;;
14883;SDS011;7534;50.762;7.000;2023-09-08T11:58:04;5.60;;;5.20;;
14883;SDS011;7534;50.762;7.000;2023-09-08T12:00:31;7.63;;;5.20;;
14883;SDS011;7534;50.762;7.000;2023-09-08T12:03:09;5.32;;;4.82;;
14883;SDS011;7534;50.762;7.000;2023-09-08T12:08:16;5.20;;;4.78;;
14883;SDS011;7534;50.762;7.000;2023-09-08T12:10:42;6.07;;;5.40;;
14883;SDS011;7534;50.762;7.000;2023-09-08T12:13:08;5.75;;;5.07;;
14883;SDS011;7534;50.762;7.000;2023-09-08T12:15:38;7.38;;;5.35;;
14883;SDS011;7534;50.762;7.000;2023-09-08T12:18:07;5.65;;;5.18;;
14883;SDS011;7534;50.762;7.000;2023-09-08T12:20:36;6.80;;;4.72;;
14883;SDS011;7534;50.762;7.000;2023-09-08T12:23:04;5.57;;;5.07;;
14883;SDS011;7534;50.762;7.000;2023-09-08T12:25:51;5.57;;;5.07;;
14883;SDS011;7534;50.762;7.000;2023-09-08T12:28:19;6.60;;;5.60;;
14883;SDS011;7534;50.762;7.000;2023-09-08T12:30:46;5.78;;;5.38;;
14883;SDS011;7534;50.762;7.000;2023-09-08T12:33:39;5.90;;;5.35;;
14883;SDS011;7534;50.762;7.000;2023-09-08T12:36:14;6.63;;;5.03;;
14883;SDS011;7534;50.762;7.000;2023-09-08T12:38:50;5.65;;;5.07;;
14883;SDS011;7534;50.762;7.000;2023-09-08T12:41:17;5.20;;;4.80;;
14883;SDS011;7534;50.762;7.000;2023-09-08T12:46:40;5.32;;;4.93;;
14883;SDS011;7534;50.762;7.000;2023-09-08T12:49:06;7.53;;;5.22;;
14883;SDS011;7534;50.762;7.000;2023-09-08T12:51:32;6.68;;;5.15;;
14883;SDS011;7534;50.762;7.000;2023-09-08T12:53:58;6.57;;;5.07;;
14883;SDS011;7534;50.762;7.000;2023-09-08T12:56:23;5.55;;;5.03;;
14883;SDS011;7534;50.762;7.000;2023-09-08T12:58:50;5.80;;;5.30;;
14883;SDS011;7534;50.762;7.000;2023-09-08T13:01:19;6.47;;;5.05;;
14883;SDS011;7534;50.762;7.000;2023-09-08T13:03:45;5.28;;;4.78;;
14883;SDS011;7534;50.762;7.000;2023-09-08T13:06:11;5.97;;;5.10;;
14883;SDS011;7534;50.762;7.000;2023-09-08T13:08:36;5.93;;;5.35;;
14883;SDS011;7534;50.762;7.000;2023-09-08T13:11:11;6.20;;;5.20;;
14883;SDS011;7534;50.762;7.000;2023-09-08T13:13:37;6.13;;;5.05;;
14883;SDS011;7534;50.762;7.000;2023-09-08T13:16:02;7.10;;;4.80;;
14883;SDS011;7534;50.762;7.000;2023-09-08T13:18:28;5.07;;;4.68;;
14883;SDS011;7534;50.762;7.000;2023-09-08T13:21:00;5.60;;;5.10;;
14883;SDS011;7534;50.762;7.000;2023-09-08T13:23:27;5.13;;;4.55;;
14883;SDS011;7534;50.762;7.000;2023-09-08T13:25:56;5.97;;;4.75;;
14883;SDS011;7534;50.762;7.000;2023-09-08T13:28:22;5.38;;;4.88;;
14883;SDS011;7534;50.762;7.000;2023-09-08T13:30:47;5.63;;;5.10;;
14883;SDS011;7534;50.762;7.000;2023-09-08T13:33:13;5.35;;;4.93;;
14883;SDS011;7534;50.762;7.000;2023-09-08T13:35:39;5.80;;;5.30;;
14883;SDS011;7534;50.762;7.000;2023-09-08T13:38:05;5.95;;;5.35;;
14883;SDS011;7534;50.762;7.000;2023-09-08T13:40:31;5.40;;;4.90;;
14883;SDS011;7534;50.762;7.000;2023-09-08T13:42:57;5.30;;;4.80;;
14883;SDS011;7534;50.762;7.000;2023-09-08T13:45:23;6.07;;;4.90;;
14883;SDS011;7534;50.762;7.000;2023-09-08T13:47:49;5.72;;;5.32;;
14883;SDS011;7534;50.762;7.000;2023-09-08T13:50:16;5.90;;;5.30;;
14883;SDS011;7534;50.762;7.000;2023-09-08T13:52:42;5.78;;;5.20;;
14883;SDS011;7534;50.762;7.000;2023-09-08T13:55:08;5.50;;;5.00;;
14883;SDS011;7534;50.762;7.000;2023-09-08T13:57:35;6.22;;;4.70;;
14883;SDS011;7534;50.762;7.000;2023-09-08T14:00:02;5.80;;;5.00;;
14883;SDS011;7534;50.762;7.000;2023-09-08T14:02:28;5.47;;;4.97;;
14883;SDS011;7534;50.762;7.000;2023-09-08T14:04:54;5.38;;;4.90;;
14883;SDS011;7534;50.762;7.000;2023-09-08T14:07:20;5.60;;;5.15;;
14883;SDS011;7534;50.762;7.000;2023-09-08T14:09:46;6.25;;;5.30;;
14883;SDS011;7534;50.762;7.000;2023-09-08T14:12:11;7.03;;;5.32;;
14883;SDS011;7534;50.762;7.000;2023-09-08T14:14:37;7.25;;;5.07;;
14883;SDS011;7534;50.762;7.000;2023-09-08T14:17:03;5.90;;;5.35;;
14883;SDS011;7534;50.762;7.000;2023-09-08T14:19:29;5.93;;;5.32;;
14883;SDS011;7534;50.762;7.000;2023-09-08T14:21:56;5.70;;;5.20;;
14883;SDS011;7534;50.762;7.000;2023-09-08T14:24:22;6.63;;;5.47;;
14883;SDS011;7534;50.762;7.000;2023-09-08T14:26:48;5.90;;;5.45;;
14883;SDS011;7534;50.762;7.000;2023-09-08T14:29:16;6.55;;;5.95;;
14883;SDS011;7534;50.762;7.000;2023-09-08T14:31:41;6.20;;;5.60;;
14883;SDS011;7534;50.762;7.000;2023-09-08T14:34:08;6.10;;;5.55;;
14883;SDS011;7534;50.762;7.000;2023-09-08T14:36:34;7.07;;;5.53;;
14883;SDS011;7534;50.762;7.000;2023-09-08T14:39:00;5.60;;;5.10;;
14883;SDS011;7534;50.762;7.000;2023-09-08T14:41:27;5.60;;;5.10;;
14883;SDS011;7534;50.762;7.000;2023-09-08T14:43:53;8.30;;;6.03;;
14883;SDS011;7534;50.762;7.000;2023-09-08T14:46:19;6.32;;;5.45;;
14883;SDS011;7534;50.762;7.000;2023-09-08T14:48:45;6.35;;;5.38;;
14883;SDS011;7534;50.762;7.000;2023-09-08T14:51:11;6.07;;;5.57;;
14883;SDS011;7534;50.762;7.000;2023-09-08T14:53:36;6.60;;;5.13;;
14883;SDS011;7534;50.762;7.000;2023-09-08T14:56:02;6.50;;;5.40;;
14883;SDS011;7534;50.762;7.000;2023-09-08T14:58:29;5.80;;;5.25;;
14883;SDS011;7534;50.762;7.000;2023-09-08T15:01:03;6.17;;;5.57;;
14883;SDS011;7534;50.762;7.000;2023-09-08T15:03:32;6.82;;;5.43;;
14883;SDS011;7534;50.762;7.000;2023-09-08T15:06:01;6.28;;;5.60;;
14883;SDS011;7534;50.762;7.000;2023-09-08T15:08:28;6.40;;;5.20;;
14883;SDS011;7534;50.762;7.000;2023-09-08T15:10:55;5.70;;;5.20;;
14883;SDS011;7534;50.762;7.000;2023-09-08T15:13:21;6.80;;;5.30;;
14883;SDS011;7534;50.762;7.000;2023-09-08T15:15:47;5.60;;;5.10;;